Time;durP1;ratioP1;P1;durP2;ratioP2;P2;SDS_P1;SDS_P2;PMS_P1;PMS_P2;Temp;Humidity;BMP_temperature;BMP_pressure;BME280_temperature;BME280_humidity;BME280_pressure;Samples;Min_cycle;Max_cycle;Signal;HPM_P1;HPM_P2
2022/01/06 00:02:25;;;;;;;17.98;3.70;;;;;;;;;;5093475;28;20050;-67
2022/01/06 00:04:51;;;;;;;24.67;3.50;;;3.50;99.90;;;;;;5111447;28;20138;-67
2022/01/06 00:07:18;;;;;;;20.13;3.38;;;;;;;;;;5110567;28;20055;-67
2022/01/06 00:09:43;;;;;;;17.23;3.15;;;3.60;99.90;;;;;;5111803;28;20035;-67
2022/01/06 00:12:13;;;;;;;18.42;3.08;;;4.20;99.90;;;;;;5110559;28;20047;-67
2022/01/06 00:14:56;;;;;;;20.40;3.22;;;3.80;99.90;;;;;;5110024;28;20146;-67
2022/01/06 00:17:47;;;;;;;17.73;3.38;;;;;;;;;;5111637;28;20051;-67
2022/01/06 00:25:42;;;;;;;19.13;3.38;;;3.00;99.90;;;;;;5111383;28;20079;-67
2022/01/06 00:28:07;;;;;;;19.25;3.55;;;3.20;99.90;;;;;;5111051;28;20079;-67
2022/01/06 00:30:35;;;;;;;24.70;3.55;;;3.10;99.90;;;;;;5111151;28;20118;-67
2022/01/06 00:33:01;;;;;;;21.27;3.60;;;;;;;;;;5111233;28;20114;-67
2022/01/06 00:35:29;;;;;;;18.38;3.20;;;;;;;;;;5110060;28;20394;-67
2022/01/06 00:37:55;;;;;;;23.17;3.20;;;;;;;;;;5110973;28;20403;-67
2022/01/06 00:40:22;;;;;;;21.80;2.72;;;;;;;;;;5111342;28;20051;-67
2022/01/06 00:42:48;;;;;;;20.30;3.47;;;;;;;;;;5109704;28;20051;-67
2022/01/06 00:45:13;;;;;;;21.48;3.45;;;3.50;99.90;;;;;;5110937;28;20047;-67
2022/01/06 00:47:39;;;;;;;18.27;2.85;;;2.90;99.90;;;;;;5111515;28;20088;-67
2022/01/06 00:50:05;;;;;;;14.40;2.60;;;1.90;99.90;;;;;;5109858;28;20046;-67
2022/01/06 00:52:33;;;;;;;18.20;3.50;;;2.90;99.90;;;;;;5111549;28;20541;-67
2022/01/06 00:54:59;;;;;;;16.75;2.63;;;2.80;99.90;;;;;;5109684;28;20054;-67
2022/01/06 00:57:25;;;;;;;26.10;4.20;;;2.60;99.90;;;;;;5111253;28;20044;-67
2022/01/06 00:59:50;;;;;;;20.20;3.35;;;2.80;99.90;;;;;;5111090;28;20054;-67
2022/01/06 01:02:16;;;;;;;20.88;3.38;;;;;;;;;;5111152;28;20043;-67
2022/01/06 01:04:42;;;;;;;21.02;3.22;;;;;;;;;;5108914;28;20073;-67
2022/01/06 01:07:09;;;;;;;23.15;4.00;;;2.80;99.90;;;;;;5110879;28;20050;-67
2022/01/06 01:09:36;;;;;;;18.85;3.15;;;2.90;99.90;;;;;;5109229;28;20055;-67
2022/01/06 01:12:04;;;;;;;23.38;3.60;;;;;;;;;;5110628;28;20433;-68
2022/01/06 01:14:33;;;;;;;25.83;3.97;;;2.70;99.90;;;;;;5110758;28;20086;-67
2022/01/06 01:17:02;;;;;;;17.95;3.38;;;3.20;99.90;;;;;;5110639;28;20047;-67
2022/01/06 01:19:30;;;;;;;23.27;3.85;;;2.90;99.90;;;;;;5110503;28;20054;-67
2022/01/06 01:21:56;;;;;;;25.10;3.42;;;3.00;99.90;;;;;;5109277;28;20104;-67
2022/01/06 01:24:23;;;;;;;22.70;3.70;;;2.30;99.90;;;;;;5110714;28;20398;-67
2022/01/06 01:26:50;;;;;;;20.75;3.10;;;2.60;99.90;;;;;;5109279;28;20043;-67
2022/01/06 01:29:18;;;;;;;23.45;3.60;;;;;;;;;;5109375;28;20078;-67
2022/01/06 01:31:51;;;;;;;21.42;4.00;;;2.80;99.90;;;;;;5110982;28;20039;-67
2022/01/06 01:34:27;;;;;;;21.42;3.72;;;2.70;99.90;;;;;;5109878;28;20060;-67
2022/01/06 01:37:02;;;;;;;19.45;3.20;;;2.80;99.90;;;;;;5109525;28;20510;-67
2022/01/06 01:39:28;;;;;;;23.73;3.83;;;2.70;99.90;;;;;;5109484;28;20390;-67
2022/01/06 01:41:55;;;;;;;21.63;3.33;;;3.00;99.90;;;;;;5110769;28;20040;-67
2022/01/06 01:44:21;;;;;;;17.90;3.10;;;2.30;99.90;;;;;;5110508;28;20087;-67
2022/01/06 01:47:00;;;;;;;21.70;3.42;;;2.60;99.90;;;;;;5109647;28;20070;-67
2022/01/06 01:49:46;;;;;;;17.30;3.22;;;3.00;99.90;;;;;;5110828;28;20131;-67
2022/01/06 01:52:13;;;;;;;20.88;3.53;;;;;;;;;;5110540;28;20118;-67
2022/01/06 01:54:39;;;;;;;21.48;3.50;;;;;;;;;;5110326;28;20127;-67
2022/01/06 01:57:04;;;;;;;25.05;3.80;;;2.30;99.90;;;;;;5110179;28;20096;-67
2022/01/06 01:59:30;;;;;;;23.58;3.00;;;1.70;99.90;;;;;;5110332;28;20051;-67
2022/01/06 02:01:56;;;;;;;22.83;3.53;;;2.30;99.90;;;;;;5110271;28;20028;-67
2022/01/06 02:04:25;;;;;;;24.77;3.95;;;1.60;99.90;;;;;;5110002;28;20562;-67
2022/01/06 02:06:51;;;;;;;25.83;3.92;;;2.40;99.90;;;;;;5111283;28;20058;-67
2022/01/06 02:09:17;;;;;;;25.63;3.60;;;;;;;;;;5113889;28;20051;-67
2022/01/06 02:11:43;;;;;;;24.92;3.33;;;2.30;99.90;;;;;;5114050;28;20051;-67
2022/01/06 02:14:09;;;;;;;25.23;3.60;;;;;;;;;;5114055;28;20093;-67
2022/01/06 02:16:36;;;;;;;23.38;3.80;;;2.30;99.90;;;;;;5112861;28;20116;-67
2022/01/06 02:19:03;;;;;;;25.42;3.53;;;;;;;;;;5112758;28;20047;-67
2022/01/06 02:21:29;;;;;;;27.48;3.65;;;2.00;99.90;;;;;;5112612;28;20131;-67
2022/01/06 02:23:55;;;;;;;21.13;3.30;;;2.00;99.90;;;;;;5113527;28;20122;-67
2022/01/06 02:26:20;;;;;;;28.05;3.42;;;1.90;99.90;;;;;;5112616;28;20075;-67
2022/01/06 02:28:47;;;;;;;25.05;4.03;;;1.90;99.90;;;;;;5113786;28;20075;-68
2022/01/06 02:31:13;;;;;;;23.70;3.33;;;;;;;;;;5113575;28;20548;-68
2022/01/06 02:33:39;;;;;;;26.58;3.95;;;2.10;99.90;;;;;;5112318;28;20056;-67
2022/01/06 02:36:06;;;;;;;20.35;3.47;;;1.50;99.90;;;;;;5112159;28;20101;-68
2022/01/06 02:38:34;;;;;;;23.05;3.97;;;;;;;;;;5095392;28;20112;-68
2022/01/06 02:41:00;;;;;;;24.08;3.40;;;1.70;99.90;;;;;;5113916;28;20032;-68
2022/01/06 02:43:26;;;;;;;27.27;3.45;;;1.90;99.90;;;;;;5113386;28;20570;-68
2022/01/06 02:45:55;;;;;;;22.65;3.75;;;1.80;99.90;;;;;;5111776;28;20043;-68
2022/01/06 02:48:21;;;;;;;24.08;3.45;;;1.80;99.90;;;;;;5111852;28;20391;-68
2022/01/06 02:50:49;;;;;;;26.23;3.30;;;1.70;99.90;;;;;;5111673;28;20097;-68
2022/01/06 02:53:16;;;;;;;30.40;3.67;;;1.90;99.90;;;;;;5111921;28;20047;-68
2022/01/06 02:55:50;;;;;;;24.38;3.35;;;1.80;99.90;;;;;;5113142;28;20049;-70
2022/01/06 02:58:20;;;;;;;28.50;3.75;;;1.80;99.90;;;;;;5111771;28;20494;-68
2022/01/06 03:00:46;;;;;;;25.25;3.45;;;2.20;99.90;;;;;;5112421;28;20050;-68
2022/01/06 03:03:12;;;;;;;26.45;3.28;;;;;;;;;;5111198;28;20098;-68
2022/01/06 03:05:38;;;;;;;21.55;3.25;;;;;;;;;;5111711;28;20047;-68
2022/01/06 03:08:04;;;;;;;20.88;3.58;;;1.50;99.90;;;;;;5113063;28;20046;-68
2022/01/06 03:10:35;;;;;;;27.23;3.17;;;1.40;99.90;;;;;;5112940;28;20088;-68
2022/01/06 03:13:01;;;;;;;21.98;3.85;;;;;;;;;;5112715;28;20503;-68
2022/01/06 03:15:27;;;;;;;25.48;3.88;;;1.50;99.90;;;;;;5094173;28;20054;-68
2022/01/06 03:17:57;;;;;;;28.98;3.40;;;1.30;99.90;;;;;;5112408;28;20395;-68
2022/01/06 03:20:26;;;;;;;23.77;3.35;;;0.90;99.90;;;;;;5112457;28;20467;-68
2022/01/06 03:22:53;;;;;;;23.10;3.60;;;1.30;99.90;;;;;;5112514;28;20035;-68
2022/01/06 03:25:20;;;;;;;33.65;4.00;;;2.10;99.90;;;;;;5111120;28;20058;-68
2022/01/06 03:27:46;;;;;;;31.00;4.03;;;1.50;99.90;;;;;;5094110;28;20509;-68
2022/01/06 03:30:16;;;;;;;26.60;4.15;;;1.60;99.90;;;;;;5112526;28;20051;-67
2022/01/06 03:32:46;;;;;;;28.55;3.40;;;1.30;99.90;;;;;;5112366;28;20078;-68
2022/01/06 03:35:14;;;;;;;28.20;3.58;;;1.60;99.90;;;;;;5112619;28;20047;-68
2022/01/06 03:37:40;;;;;;;22.77;3.63;;;2.40;99.90;;;;;;5110904;28;20051;-68
2022/01/06 03:40:09;;;;;;;34.17;3.80;;;1.60;99.90;;;;;;5112209;28;20047;-67
2022/01/06 03:42:37;;;;;;;19.33;3.97;;;1.20;99.90;;;;;;5111515;28;20115;-67
2022/01/06 03:45:06;;;;;;;29.30;3.75;;;1.70;99.90;;;;;;5111121;28;20055;-68
2022/01/06 03:47:32;;;;;;;19.27;3.25;;;;;;;;;;5112308;28;20440;-67
2022/01/06 03:49:58;;;;;;;19.55;3.70;;;1.70;99.90;;;;;;5112169;28;20092;-68
2022/01/06 03:52:23;;;;;;;25.35;3.75;;;1.40;99.90;;;;;;5112282;28;20467;-67
2022/01/06 03:54:51;;;;;;;24.08;3.65;;;1.70;99.90;;;;;;5112020;28;20486;-68
2022/01/06 03:57:17;;;;;;;23.70;3.22;;;2.10;99.90;;;;;;5111839;28;20055;-68
2022/01/06 03:59:43;;;;;;;22.65;3.38;;;1.60;99.90;;;;;;5093347;28;20510;-67
2022/01/06 04:02:09;;;;;;;19.50;4.18;;;;;;;;;;5111636;28;20130;-67
2022/01/06 04:04:35;;;;;;;22.27;3.28;;;;;;;;;;5110071;28;20131;-68
2022/01/06 04:07:01;;;;;;;24.42;3.25;;;1.70;99.90;;;;;;5111743;28;20048;-68
2022/01/06 04:09:27;;;;;;;22.45;3.35;;;;;;;;;;5110162;28;20088;-68
2022/01/06 04:11:53;;;;;;;28.92;3.58;;;1.40;99.90;;;;;;5111524;28;20039;-67
2022/01/06 04:14:18;;;;;;;20.60;3.53;;;0.90;99.90;;;;;;5110011;28;20410;-68
2022/01/06 04:16:45;;;;;;;23.40;3.42;;;0.80;99.90;;;;;;5109949;28;20052;-67
2022/01/06 04:19:10;;;;;;;24.80;4.07;;;1.20;99.90;;;;;;5111445;28;20048;-67
2022/01/06 04:21:37;;;;;;;25.65;3.65;;;;;;;;;;5110191;28;20050;-68
2022/01/06 04:24:03;;;;;;;25.98;3.42;;;1.90;99.90;;;;;;5111459;28;20082;-67
2022/01/06 04:26:29;;;;;;;27.58;3.67;;;1.90;99.90;;;;;;5110573;28;20040;-67
2022/01/06 04:28:55;;;;;;;30.25;4.30;;;1.40;99.90;;;;;;5111880;28;20406;-67
2022/01/06 04:31:21;;;;;;;30.42;3.90;;;1.40;99.90;;;;;;5110275;28;20070;-68
2022/01/06 04:33:47;;;;;;;32.10;3.50;;;;;;;;;;5112024;28;20373;-68
2022/01/06 04:36:13;;;;;;;16.42;3.00;;;;;;;;;;5110446;28;20039;-68
2022/01/06 04:38:39;;;;;;;27.48;3.60;;;1.50;99.90;;;;;;5109674;28;20071;-68
2022/01/06 04:41:05;;;;;;;22.02;3.22;;;1.50;99.90;;;;;;5093108;28;20144;-68
2022/01/06 04:43:31;;;;;;;27.02;3.78;;;1.10;99.90;;;;;;5092489;28;20479;-68
2022/01/06 04:45:59;;;;;;;20.08;2.95;;;2.90;99.90;;;;;;5111145;28;20049;-68
2022/01/06 04:48:25;;;;;;;22.55;3.47;;;0.90;99.90;;;;;;5111135;28;20044;-68
2022/01/06 04:50:51;;;;;;;23.35;2.95;;;1.00;99.90;;;;;;5110837;28;20445;-68
2022/01/06 04:53:17;;;;;;;22.65;3.28;;;;;;;;;;5109722;28;20047;-76
2022/01/06 04:55:43;;;;;;;20.63;3.00;;;;;;;;;;5110016;28;20054;-75
2022/01/06 04:58:08;;;;;;;25.27;2.97;;;0.90;99.90;;;;;;5109685;28;20517;-76
2022/01/06 05:00:35;;;;;;;17.15;2.95;;;0.40;99.90;;;;;;5111211;28;20078;-76
2022/01/06 05:03:01;;;;;;;14.45;3.03;;;;;;;;;;5111102;28;20063;-75
2022/01/06 05:05:30;;;;;;;18.17;3.00;;;0.00;99.90;;;;;;5109909;28;20530;-76
2022/01/06 05:08:00;;;;;;;23.73;3.42;;;0.40;99.90;;;;;;5109845;28;20046;-76
2022/01/06 05:10:26;;;;;;;25.20;3.10;;;0.30;99.90;;;;;;5110031;28;20089;-76
2022/01/06 05:12:51;;;;;;;20.02;3.05;;;0.50;99.90;;;;;;5110984;28;20040;-75
2022/01/06 05:15:19;;;;;;;21.15;3.25;;;0.40;99.90;;;;;;5110906;28;20056;-75
2022/01/06 05:17:46;;;;;;;13.60;3.05;;;0.40;99.90;;;;;;5109743;28;20487;-76
2022/01/06 05:20:12;;;;;;;23.58;3.35;;;0.00;99.90;;;;;;5111154;28;20481;-76
2022/01/06 05:22:44;;;;;;;25.75;3.33;;;0.10;99.90;;;;;;5110803;28;20043;-76
2022/01/06 05:25:11;;;;;;;30.40;3.83;;;0.30;99.90;;;;;;5110319;28;20046;-68
2022/01/06 05:27:37;;;;;;;25.13;3.42;;;;;;;;;;5109218;28;20043;-68
2022/01/06 05:30:05;;;;;;;22.25;3.45;;;0.30;99.90;;;;;;5109385;28;20163;-68
2022/01/06 05:32:32;;;;;;;33.22;4.28;;;;;;;;;;5109455;28;20471;-68
2022/01/06 05:34:58;;;;;;;22.23;3.35;;;0.20;99.90;;;;;;5110617;28;20059;-68
2022/01/06 05:37:24;;;;;;;28.92;3.92;;;0.60;99.90;;;;;;5109312;28;20448;-68
2022/01/06 05:39:52;;;;;;;22.63;3.50;;;;;;;;;;5110395;28;20324;-68
2022/01/06 05:42:18;;;;;;;25.60;3.92;;;;;;;;;;5112324;28;20048;-68
2022/01/06 05:44:44;;;;;;;15.98;3.22;;;;;;;;;;5112919;28;20056;-68
2022/01/06 05:47:10;;;;;;;26.70;4.22;;;-0.40;99.90;;;;;;5114338;28;20032;-68
2022/01/06 05:49:35;;;;;;;26.67;4.20;;;-0.30;99.90;;;;;;5114433;28;20052;-69
2022/01/06 05:52:01;;;;;;;31.40;3.85;;;-0.10;99.90;;;;;;5113286;28;20508;-68
2022/01/06 05:54:31;;;;;;;25.30;4.10;;;-0.70;99.90;;;;;;5114441;28;20617;-68
2022/01/06 05:56:59;;;;;;;28.40;4.18;;;-0.10;99.90;;;;;;5114419;28;20062;-68
2022/01/06 05:59:24;;;;;;;46.58;4.00;;;-0.10;99.90;;;;;;5113204;28;20439;-68
2022/01/06 06:01:51;;;;;;;36.38;4.20;;;-0.30;99.90;;;;;;5114155;28;20168;-68
2022/01/06 06:04:17;;;;;;;16.00;3.50;;;-0.10;99.90;;;;;;5114268;28;20071;-68
2022/01/06 06:06:44;;;;;;;20.52;3.67;;;;;;;;;;5114699;28;20047;-68
2022/01/06 06:09:09;;;;;;;21.42;3.63;;;-0.30;99.90;;;;;;5113836;28;20174;-75
2022/01/06 06:11:35;;;;;;;23.13;3.45;;;;;;;;;;5112667;28;20111;-76
2022/01/06 06:14:01;;;;;;;27.10;3.78;;;-0.50;99.90;;;;;;5114234;28;20039;-75
2022/01/06 06:16:27;;;;;;;18.98;3.65;;;;;;;;;;5113878;28;20521;-75
2022/01/06 06:18:55;;;;;;;20.95;3.30;;;-0.40;99.90;;;;;;5113666;28;20547;-75
2022/01/06 06:21:21;;;;;;;31.13;4.20;;;;;;;;;;5113614;28;20043;-68
2022/01/06 06:23:50;;;;;;;16.23;3.10;;;;;;;;;;5112180;28;20550;-68
2022/01/06 06:26:16;;;;;;;32.10;4.07;;;;;;;;;;5113772;28;20085;-68
2022/01/06 06:28:42;;;;;;;38.97;3.95;;;-0.20;99.90;;;;;;5113506;28;20051;-68
2022/01/06 06:31:08;;;;;;;25.67;3.72;;;-0.40;99.90;;;;;;5111894;28;20506;-68
2022/01/06 06:33:34;;;;;;;21.75;3.97;;;;;;;;;;5112302;28;20061;-68
2022/01/06 06:36:02;;;;;;;28.05;3.90;;;-0.70;99.90;;;;;;5113459;28;20044;-68
2022/01/06 06:38:28;;;;;;;24.95;3.78;;;;;;;;;;5112008;28;20055;-68
2022/01/06 06:40:54;;;;;;;34.00;4.30;;;-0.30;99.90;;;;;;5112271;28;20040;-68
2022/01/06 06:43:20;;;;;;;33.35;3.65;;;;;;;;;;5113639;28;20036;-68
2022/01/06 06:45:46;;;;;;;27.73;4.25;;;0.10;99.90;;;;;;5113187;28;20400;-68
2022/01/06 06:48:13;;;;;;;28.88;3.80;;;;;;;;;;5113237;27;20054;-68
2022/01/06 06:50:39;;;;;;;29.23;4.43;;;;;;;;;;5112957;28;20380;-68
2022/01/06 06:53:07;;;;;;;21.05;3.42;;;-0.40;99.90;;;;;;5110006;28;20048;-75
2022/01/06 06:55:33;;;;;;;30.92;3.92;;;;;;;;;;5109347;28;20568;-74
2022/01/06 06:57:58;;;;;;;18.60;3.80;;;-0.50;99.90;;;;;;5111461;28;20100;-75
2022/01/06 07:00:25;;;;;;;22.90;3.70;;;-0.70;99.90;;;;;;5111703;28;20047;-74
2022/01/06 07:02:51;;;;;;;25.52;4.47;;;;;;;;;;5111443;28;20052;-75
2022/01/06 07:05:17;;;;;;;21.63;3.40;;;;;;;;;;5110689;27;20090;-68
2022/01/06 07:07:44;;;;;;;17.25;3.40;;;-0.70;99.90;;;;;;5107815;28;20052;-68
2022/01/06 07:10:10;;;;;;;18.30;3.38;;;0.20;99.90;;;;;;5096992;27;20109;-70
2022/01/06 07:12:41;;;;;;;23.80;3.53;;;-0.80;99.90;;;;;;5120009;27;20449;-69
2022/01/06 07:15:14;;;;;;;24.40;3.67;;;-0.80;99.90;;;;;;5123387;27;20032;-69
2022/01/06 07:17:41;;;;;;;20.85;2.90;;;-0.70;99.90;;;;;;5125418;27;20086;-68
2022/01/06 07:20:08;;;;;;;22.42;3.13;;;-0.70;99.90;;;;;;5122345;27;20071;-68
2022/01/06 07:22:34;;;;;;;20.17;3.30;;;-0.80;99.90;;;;;;5110276;28;20150;-68
2022/01/06 07:25:01;;;;;;;28.92;3.30;;;-0.70;99.90;;;;;;5111941;28;20566;-68
2022/01/06 07:27:28;;;;;;;24.48;3.38;;;-0.90;99.90;;;;;;5092986;28;20647;-68
2022/01/06 07:29:55;;;;;;;25.48;3.88;;;-1.50;99.90;;;;;;5102774;28;20043;-73
2022/01/06 07:32:21;;;;;;;23.70;3.75;;;;;;;;;;5089482;28;20056;-68
2022/01/06 07:34:47;;;;;;;30.08;4.40;;;;;;;;;;5090976;28;20048;-67
2022/01/06 07:37:13;;;;;;;27.25;4.35;;;;;;;;;;5090970;28;20081;-68
2022/01/06 07:39:40;;;;;;;20.33;3.58;;;-0.90;99.90;;;;;;5089335;28;20055;-68
2022/01/06 07:42:07;;;;;;;40.75;10.95;;;;;;;;;;5091086;28;20056;-68
2022/01/06 07:44:34;;;;;;;23.98;4.43;;;-0.80;99.90;;;;;;5072671;28;20051;-69
2022/01/06 07:47:00;;;;;;;22.20;4.00;;;-0.90;99.90;;;;;;5091134;28;20051;-74
2022/01/06 07:49:26;;;;;;;23.92;4.00;;;;;;;;;;5109175;28;20108;-74
2022/01/06 07:51:54;;;;;;;29.73;4.82;;;;;;;;;;5114513;27;20043;-74
2022/01/06 07:54:20;;;;;;;21.52;3.97;;;-1.00;99.90;;;;;;5130832;27;20039;-73
2022/01/06 07:56:48;;;;;;;20.58;3.90;;;-1.70;99.90;;;;;;5121481;27;20441;-68
2022/01/06 07:59:13;;;;;;;26.70;4.43;;;-0.10;99.90;;;;;;5105979;28;20032;-68
2022/01/06 08:01:40;;;;;;;18.77;3.97;;;-0.80;99.90;;;;;;5089570;28;20127;-68
2022/01/06 08:04:05;;;;;;;19.55;3.70;;;-0.70;99.90;;;;;;5098957;28;20062;-68
2022/01/06 08:06:32;;;;;;;26.58;3.92;;;-0.90;99.90;;;;;;5113231;27;20043;-69
2022/01/06 08:08:58;;;;;;;26.50;4.03;;;-1.30;99.90;;;;;;5131901;27;20136;-68
2022/01/06 08:11:25;;;;;;;21.67;3.80;;;;;;;;;;5130464;27;20043;-69
2022/01/06 08:13:51;;;;;;;24.08;4.75;;;-0.30;99.90;;;;;;5130277;27;20043;-68
2022/01/06 08:16:16;;;;;;;22.02;5.03;;;-1.10;99.90;;;;;;5130524;27;20045;-69
2022/01/06 08:18:42;;;;;;;30.13;5.95;;;;;;;;;;5105266;27;20047;-68
2022/01/06 08:21:08;;;;;;;28.58;6.10;;;-1.20;99.90;;;;;;5104184;28;20051;-68
2022/01/06 08:23:34;;;;;;;29.67;5.07;;;-0.60;99.90;;;;;;5089305;28;20047;-69
2022/01/06 08:26:00;;;;;;;28.17;5.65;;;;;;;;;;5090827;28;20051;-68
2022/01/06 08:28:26;;;;;;;30.10;4.95;;;;;;;;;;5089318;28;20418;-69
2022/01/06 08:30:52;;;;;;;23.40;4.07;;;-0.50;99.90;;;;;;5089212;28;20539;-68
2022/01/06 08:33:19;;;;;;;23.58;4.20;;;-0.50;99.90;;;;;;5088840;28;20050;-69
2022/01/06 08:35:45;;;;;;;31.65;4.40;;;-0.40;99.90;;;;;;5089502;28;20056;-74
2022/01/06 08:38:11;;;;;;;21.10;4.07;;;0.40;99.90;;;;;;5090254;28;20124;-76
2022/01/06 08:40:38;;;;;;;40.08;11.90;;;-0.50;99.90;;;;;;5089047;28;20475;-73
2022/01/06 08:43:03;;;;;;;30.70;9.88;;;0.00;99.90;;;;;;5089058;28;20394;-74
2022/01/06 08:45:32;;;;;;;32.15;7.40;;;-0.40;99.90;;;;;;5089883;28;20044;-73
2022/01/06 08:48:01;;;;;;;28.83;6.05;;;-0.40;99.90;;;;;;5090551;28;20040;-68
2022/01/06 08:50:28;;;;;;;35.90;5.75;;;-0.30;99.90;;;;;;5089099;28;20483;-74
2022/01/06 08:52:55;;;;;;;27.15;5.25;;;-0.10;99.90;;;;;;5109262;28;20383;-74
2022/01/06 08:55:22;;;;;;;37.15;5.47;;;;;;;;;;5109085;28;20130;-74
2022/01/06 08:57:48;;;;;;;33.47;5.07;;;;;;;;;;5091977;28;20043;-72
2022/01/06 09:00:14;;;;;;;32.05;5.43;;;;;;;;;;5109943;27;20094;-72
2022/01/06 09:02:40;;;;;;;29.95;5.38;;;-0.60;99.90;;;;;;5109485;28;20050;-72
2022/01/06 09:05:06;;;;;;;31.02;6.07;;;0.10;99.90;;;;;;5108229;28;20515;-74
2022/01/06 09:07:35;;;;;;;41.45;6.13;;;0.20;99.90;;;;;;5108623;28;20048;-73
2022/01/06 09:10:03;;;;;;;28.88;5.43;;;-0.30;99.90;;;;;;5108498;28;20050;-72
2022/01/06 09:12:30;;;;;;;29.05;6.10;;;0.40;99.90;;;;;;5108057;28;20040;-72
2022/01/06 09:14:55;;;;;;;41.38;5.20;;;0.80;99.90;;;;;;5108147;28;20083;-74
2022/01/06 09:17:22;;;;;;;30.67;5.47;;;0.70;99.90;;;;;;5108406;28;20071;-73
2022/01/06 09:19:48;;;;;;;46.55;6.72;;;;;;;;;;5088957;28;20495;-75
2022/01/06 09:22:14;;;;;;;30.20;6.28;;;;;;;;;;5088480;28;20582;-75
2022/01/06 09:24:39;;;;;;;38.97;5.57;;;-0.30;99.90;;;;;;5089078;28;20503;-75
2022/01/06 09:27:05;;;;;;;39.13;5.97;;;;;;;;;;5088522;28;20036;-75
2022/01/06 09:29:31;;;;;;;33.70;7.32;;;;;;;;;;5088639;28;20036;-69
2022/01/06 09:31:57;;;;;;;36.10;7.18;;;;;;;;;;5090544;28;20044;-69
2022/01/06 09:34:23;;;;;;;39.35;6.40;;;0.10;99.90;;;;;;5089134;28;20097;-69
2022/01/06 09:36:49;;;;;;;28.48;4.72;;;;;;;;;;5088857;28;20127;-75
2022/01/06 09:39:15;;;;;;;35.58;5.03;;;0.10;99.90;;;;;;5089942;28;20547;-75
2022/01/06 09:41:41;;;;;;;29.02;4.95;;;0.90;99.90;;;;;;5089824;28;20161;-75
2022/01/06 09:44:07;;;;;;;39.88;5.82;;;1.20;99.90;;;;;;5088593;28;20075;-68
2022/01/06 09:46:33;;;;;;;37.00;6.28;;;;;;;;;;5088888;28;20055;-69
2022/01/06 09:49:00;;;;;;;40.22;6.60;;;;;;;;;;5088714;28;20096;-69
2022/01/06 09:51:31;;;;;;;33.22;5.70;;;1.80;99.90;;;;;;5089244;28;20036;-68
2022/01/06 09:54:00;;;;;;;46.38;6.78;;;2.20;99.90;;;;;;5090959;28;20498;-69
2022/01/06 09:56:29;;;;;;;33.88;8.05;;;2.90;99.90;;;;;;5110831;28;20050;-68
2022/01/06 09:58:55;;;;;;;42.47;7.10;;;;;;;;;;5110202;28;20070;-69
2022/01/06 10:01:21;;;;;;;33.97;5.95;;;3.80;99.90;;;;;;5108803;28;20051;-69
2022/01/06 10:03:48;;;;;;;45.65;5.82;;;3.50;99.90;;;;;;5108620;28;20384;-69
2022/01/06 10:06:40;;;;;;;27.80;5.38;;;3.70;99.90;;;;;;5108686;28;20117;-69
2022/01/06 10:09:06;;;;;;;37.25;6.32;;;3.30;99.90;;;;;;5106108;28;20052;-69
2022/01/06 10:11:33;;;;;;;37.63;6.20;;;3.70;99.90;;;;;;5108778;28;20048;-69
2022/01/06 10:14:00;;;;;;;28.17;6.00;;;;;;;;;;5110472;28;20035;-69
2022/01/06 10:16:31;;;;;;;37.53;6.22;;;2.50;99.90;;;;;;5108841;28;20049;-68
2022/01/06 10:19:10;;;;;;;32.20;7.13;;;3.40;99.90;;;;;;5108856;28;20047;-69
2022/01/06 10:22:00;;;;;;;29.42;5.32;;;2.20;99.90;;;;;;5108851;28;20035;-69
2022/01/06 10:24:28;;;;;;;27.60;5.88;;;3.20;99.90;;;;;;5108789;28;20043;-76
2022/01/06 10:27:09;;;;;;;35.15;6.70;;;3.30;99.90;;;;;;5108553;28;20067;-76
2022/01/06 10:29:38;;;;;;;28.08;6.13;;;3.20;99.90;;;;;;5111768;28;20095;-76
2022/01/06 10:32:10;;;;;;;29.65;6.28;;;3.30;99.90;;;;;;5113402;28;20067;-75
2022/01/06 10:34:42;;;;;;;38.75;7.00;;;3.10;99.90;;;;;;5112063;28;20048;-76
2022/01/06 10:37:22;;;;;;;31.75;5.63;;;3.30;99.90;;;;;;5113481;28;20166;-76
2022/01/06 10:39:49;;;;;;;27.33;5.72;;;3.30;99.90;;;;;;5112284;28;20040;-76
2022/01/06 10:42:16;;;;;;;27.63;5.57;;;;;;;;;;5113739;28;20044;-76
2022/01/06 10:44:49;;;;;;;35.20;5.80;;;3.60;99.90;;;;;;5112470;28;20040;-76
2022/01/06 10:47:28;;;;;;;28.75;6.07;;;3.70;99.90;;;;;;5112476;28;20047;-75
2022/01/06 10:49:54;;;;;;;36.92;6.70;;;4.20;99.90;;;;;;5112209;28;20039;-67
2022/01/06 10:52:26;;;;;;;38.03;6.63;;;3.70;99.90;;;;;;5113149;28;20040;-69
2022/01/06 10:54:52;;;;;;;35.95;6.68;;;;;;;;;;5113380;28;20062;-76
2022/01/06 10:57:18;;;;;;;37.78;6.97;;;;;;;;;;5113514;28;20055;-76
2022/01/06 10:59:45;;;;;;;29.02;5.70;;;3.80;99.90;;;;;;5112010;28;20051;-76
2022/01/06 11:02:24;;;;;;;29.70;6.00;;;3.90;99.90;;;;;;5113580;28;20039;-76
2022/01/06 11:04:50;;;;;;;24.50;5.38;;;4.10;99.90;;;;;;5112832;28;20491;-76
2022/01/06 11:07:16;;;;;;;35.97;6.22;;;4.00;99.90;;;;;;5113357;28;20111;-76
2022/01/06 11:09:46;;;;;;;25.55;5.47;;;4.00;99.90;;;;;;5113087;28;20036;-68
2022/01/06 11:12:27;;;;;;;26.50;5.45;;;4.00;99.90;;;;;;5111560;28;20079;-68
2022/01/06 11:14:53;;;;;;;29.70;5.78;;;4.00;99.90;;;;;;5111435;28;20051;-68
2022/01/06 11:17:21;;;;;;;31.55;5.40;;;4.00;99.90;;;;;;5111434;28;20510;-68
2022/01/06 11:19:49;;;;;;;34.25;5.78;;;4.30;99.90;;;;;;5112592;28;20059;-69
2022/01/06 11:22:15;;;;;;;31.42;5.68;;;;;;;;;;5112767;28;20126;-67
2022/01/06 11:24:53;;;;;;;25.10;4.95;;;4.30;99.90;;;;;;5112698;28;20098;-70
2022/01/06 11:27:30;;;;;;;29.80;5.57;;;4.20;99.90;;;;;;5112711;28;20107;-68
2022/01/06 11:30:13;;;;;;;35.08;7.53;;;5.10;99.90;;;;;;5113253;28;20051;-68
2022/01/06 11:32:41;;;;;;;27.83;5.45;;;4.50;99.90;;;;;;5113041;28;20047;-75
2022/01/06 11:35:16;;;;;;;27.70;5.15;;;4.60;99.90;;;;;;5111744;28;20047;-68
2022/01/06 11:37:52;;;;;;;29.48;4.90;;;4.90;99.90;;;;;;5112952;28;20096;-68
2022/01/06 11:40:35;;;;;;;34.40;5.23;;;5.10;99.90;;;;;;5111507;27;20119;-68
2022/01/06 11:43:01;;;;;;;31.33;5.28;;;4.80;99.90;;;;;;5112848;28;20055;-68
2022/01/06 11:45:27;;;;;;;25.80;5.60;;;;;;;;;;5094490;28;20056;-69
2022/01/06 11:48:00;;;;;;;28.90;5.60;;;5.00;99.90;;;;;;5111339;28;20047;-69
2022/01/06 11:50:26;;;;;;;30.63;4.97;;;5.10;99.90;;;;;;5112316;28;20036;-69
2022/01/06 11:52:56;;;;;;;30.58;5.50;;;5.20;99.90;;;;;;5110578;28;20509;-69
2022/01/06 11:55:27;;;;;;;30.17;5.45;;;3.80;99.90;;;;;;5112536;28;20039;-69
2022/01/06 11:57:55;;;;;;;30.92;5.10;;;;;;;;;;5111040;28;20043;-69
2022/01/06 12:00:27;;;;;;;34.47;5.28;;;5.70;99.90;;;;;;5112359;28;20419;-69
2022/01/06 12:03:13;;;;;;;24.48;5.25;;;5.50;99.90;;;;;;5112065;27;20042;-75
2022/01/06 12:05:48;;;;;;;31.83;5.65;;;4.90;99.90;;;;;;5111630;28;20056;-76
2022/01/06 12:08:16;;;;;;;26.17;4.93;;;5.80;99.90;;;;;;5112026;28;20067;-76
2022/01/06 12:10:44;;;;;;;22.58;4.45;;;6.10;99.90;;;;;;5110841;28;20043;-75
2022/01/06 12:13:10;;;;;;;25.40;5.05;;;5.70;99.90;;;;;;5111436;28;20522;-75
2022/01/06 12:16:08;;;;;;;25.25;4.93;;;5.70;99.90;;;;;;5096755;27;20050;-75
2022/01/06 12:18:35;;;;;;;27.30;4.90;;;5.90;99.90;;;;;;5091490;27;20055;-75
2022/01/06 12:21:01;;;;;;;25.05;5.45;;;5.70;99.90;;;;;;5123040;27;20038;-75
2022/01/06 12:23:27;;;;;;;26.67;5.40;;;;;;;;;;5110081;28;20490;-75
2022/01/06 12:26:03;;;;;;;28.65;5.30;;;6.00;99.90;;;;;;5122690;27;20059;-75
2022/01/06 12:28:32;;;;;;;22.20;4.57;;;6.30;99.90;;;;;;5113136;27;20043;-75
2022/01/06 12:31:04;;;;;;;28.42;5.20;;;6.20;99.90;;;;;;5118555;27;20047;-75
2022/01/06 12:33:32;;;;;;;33.10;5.38;;;;;;;;;;5110772;28;20035;-75
2022/01/06 12:35:58;;;;;;;25.38;4.57;;;6.10;99.90;;;;;;5109024;28;20051;-75
2022/01/06 12:38:30;;;;;;;21.85;4.82;;;6.20;99.90;;;;;;5109529;28;20043;-75
2022/01/06 12:40:56;;;;;;;25.15;5.78;;;;;;;;;;5109388;28;20136;-76
2022/01/06 12:43:24;;;;;;;19.15;4.50;;;6.30;99.90;;;;;;5088608;28;20182;-76
2022/01/06 12:46:19;;;;;;;24.42;5.10;;;6.00;99.90;;;;;;5107890;28;20048;-75
2022/01/06 12:48:48;;;;;;;27.92;5.05;;;6.30;99.90;;;;;;5091983;28;20063;-75
2022/01/06 12:51:26;;;;;;;27.55;5.00;;;6.20;99.90;;;;;;5108841;28;20043;-75
2022/01/06 12:54:04;;;;;;;20.30;4.28;;;6.40;99.90;;;;;;5110961;28;20079;-75
2022/01/06 12:56:39;;;;;;;27.45;4.78;;;6.20;99.90;;;;;;5109442;28;20055;-75
2022/01/06 12:59:10;;;;;;;24.85;4.40;;;6.10;99.90;;;;;;5109096;28;20040;-75
2022/01/06 13:01:37;;;;;;;25.30;4.63;;;6.00;99.90;;;;;;5110610;28;20035;-75
2022/01/06 13:04:05;;;;;;;28.23;4.93;;;6.10;99.90;;;;;;5110395;28;20051;-68
2022/01/06 13:06:34;;;;;;;27.25;5.18;;;6.20;99.90;;;;;;5109864;28;20047;-68
2022/01/06 13:09:01;;;;;;;20.83;4.43;;;6.50;99.90;;;;;;5111046;28;20069;-68
2022/01/06 13:11:40;;;;;;;26.77;4.25;;;6.30;99.90;;;;;;5109573;28;20479;-68
2022/01/06 13:14:07;;;;;;;25.40;5.20;;;6.30;99.90;;;;;;5109145;28;20048;-69
2022/01/06 13:16:33;;;;;;;31.27;4.90;;;6.30;99.90;;;;;;5110422;28;20043;-68
2022/01/06 13:19:13;;;;;;;23.50;4.57;;;6.50;99.90;;;;;;5110566;28;20035;-68
2022/01/06 13:21:48;;;;;;;32.70;5.15;;;6.40;99.90;;;;;;5109190;28;20063;-68